sensor_id;sensor_type;location;lat;lon;timestamp;P1;durP1;ratioP1;P2;durP2;ratioP2
58950;SDS011;44730;53.158;6.398;2023-06-04T00:02:04;7.07;;;4.55;;
58950;SDS011;44730;53.158;6.398;2023-06-04T00:04:30;7.60;;;4.15;;
58950;SDS011;44730;53.158;6.398;2023-06-04T00:06:57;6.93;;;4.20;;
58950;SDS011;44730;53.158;6.398;2023-06-04T00:09:23;5.55;;;4.00;;
58950;SDS011;44730;53.158;6.398;2023-06-04T00:11:50;10.52;;;4.75;;
58950;SDS011;44730;53.158;6.398;2023-06-04T00:14:16;5.90;;;4.13;;
58950;SDS011;44730;53.158;6.398;2023-06-04T00:16:42;7.00;;;4.15;;
58950;SDS011;44730;53.158;6.398;2023-06-04T00:19:08;6.53;;;4.50;;
58950;SDS011;44730;53.158;6.398;2023-06-04T00:21:35;7.35;;;4.82;;
58950;SDS011;44730;53.158;6.398;2023-06-04T00:24:01;6.22;;;4.53;;
58950;SDS011;44730;53.158;6.398;2023-06-04T00:26:28;8.10;;;5.13;;
58950;SDS011;44730;53.158;6.398;2023-06-04T00:28:54;7.72;;;4.72;;
58950;SDS011;44730;53.158;6.398;2023-06-04T00:31:21;10.90;;;5.47;;
58950;SDS011;44730;53.158;6.398;2023-06-04T00:33:47;7.63;;;4.43;;
58950;SDS011;44730;53.158;6.398;2023-06-04T00:36:13;6.85;;;4.60;;
58950;SDS011;44730;53.158;6.398;2023-06-04T00:38:39;9.40;;;5.03;;
58950;SDS011;44730;53.158;6.398;2023-06-04T00:41:06;9.13;;;5.65;;
58950;SDS011;44730;53.158;6.398;2023-06-04T00:43:32;8.15;;;5.00;;
58950;SDS011;44730;53.158;6.398;2023-06-04T00:45:58;7.63;;;4.97;;
58950;SDS011;44730;53.158;6.398;2023-06-04T00:48:25;8.45;;;5.20;;
58950;SDS011;44730;53.158;6.398;2023-06-04T00:50:52;7.32;;;4.47;;
58950;SDS011;44730;53.158;6.398;2023-06-04T00:53:20;11.05;;;5.18;;
58950;SDS011;44730;53.158;6.398;2023-06-04T00:55:46;10.65;;;4.97;;
58950;SDS011;44730;53.158;6.398;2023-06-04T00:58:12;7.97;;;4.35;;
58950;SDS011;44730;53.158;6.398;2023-06-04T01:00:40;6.15;;;3.78;;
58950;SDS011;44730;53.158;6.398;2023-06-04T01:03:10;6.07;;;3.97;;
58950;SDS011;44730;53.158;6.398;2023-06-04T01:06:21;7.68;;;3.58;;
58950;SDS011;44730;53.158;6.398;2023-06-04T01:08:27;7.85;;;4.30;;
58950;SDS011;44730;53.158;6.398;2023-06-04T01:10:54;6.82;;;3.85;;
58950;SDS011;44730;53.158;6.398;2023-06-04T01:13:22;8.35;;;4.72;;
58950;SDS011;44730;53.158;6.398;2023-06-04T01:15:48;7.25;;;4.05;;
58950;SDS011;44730;53.158;6.398;2023-06-04T01:18:18;5.30;;;4.03;;
58950;SDS011;44730;53.158;6.398;2023-06-04T01:20:53;4.80;;;3.10;;
58950;SDS011;44730;53.158;6.398;2023-06-04T01:23:26;5.80;;;4.05;;
58950;SDS011;44730;53.158;6.398;2023-06-04T01:25:58;6.20;;;3.42;;
58950;SDS011;44730;53.158;6.398;2023-06-04T01:28:27;8.13;;;3.67;;
58950;SDS011;44730;53.158;6.398;2023-06-04T01:30:54;5.90;;;3.33;;
58950;SDS011;44730;53.158;6.398;2023-06-04T01:33:21;6.97;;;3.83;;
58950;SDS011;44730;53.158;6.398;2023-06-04T01:35:49;6.30;;;4.07;;
58950;SDS011;44730;53.158;6.398;2023-06-04T01:38:15;6.60;;;3.78;;
58950;SDS011;44730;53.158;6.398;2023-06-04T01:40:41;6.47;;;3.30;;
58950;SDS011;44730;53.158;6.398;2023-06-04T01:43:08;6.18;;;4.00;;
58950;SDS011;44730;53.158;6.398;2023-06-04T01:45:34;5.15;;;3.53;;
58950;SDS011;44730;53.158;6.398;2023-06-04T01:48:01;5.25;;;3.30;;
58950;SDS011;44730;53.158;6.398;2023-06-04T01:50:28;5.28;;;3.38;;
58950;SDS011;44730;53.158;6.398;2023-06-04T01:52:55;5.63;;;2.92;;
58950;SDS011;44730;53.158;6.398;2023-06-04T01:55:22;4.30;;;3.10;;
58950;SDS011;44730;53.158;6.398;2023-06-04T01:57:50;5.15;;;3.63;;
58950;SDS011;44730;53.158;6.398;2023-06-04T02:00:17;4.32;;;2.95;;
58950;SDS011;44730;53.158;6.398;2023-06-04T02:02:44;5.63;;;3.03;;
58950;SDS011;44730;53.158;6.398;2023-06-04T02:05:13;5.18;;;3.30;;
58950;SDS011;44730;53.158;6.398;2023-06-04T02:07:43;5.25;;;2.78;;
58950;SDS011;44730;53.158;6.398;2023-06-04T02:10:14;8.40;;;3.55;;
58950;SDS011;44730;53.158;6.398;2023-06-04T02:12:41;6.22;;;3.33;;
58950;SDS011;44730;53.158;6.398;2023-06-04T02:15:09;6.55;;;3.60;;
58950;SDS011;44730;53.158;6.398;2023-06-04T02:17:36;5.72;;;3.47;;
58950;SDS011;44730;53.158;6.398;2023-06-04T02:20:07;10.88;;;3.63;;
58950;SDS011;44730;53.158;6.398;2023-06-04T02:22:34;7.43;;;3.60;;
58950;SDS011;44730;53.158;6.398;2023-06-04T02:25:01;6.20;;;3.67;;
58950;SDS011;44730;53.158;6.398;2023-06-04T02:27:27;4.68;;;3.08;;
58950;SDS011;44730;53.158;6.398;2023-06-04T02:29:53;5.47;;;3.60;;
58950;SDS011;44730;53.158;6.398;2023-06-04T02:32:19;4.75;;;3.22;;
58950;SDS011;44730;53.158;6.398;2023-06-04T02:34:45;6.13;;;3.53;;
58950;SDS011;44730;53.158;6.398;2023-06-04T02:37:12;6.15;;;3.45;;
58950;SDS011;44730;53.158;6.398;2023-06-04T02:39:38;6.25;;;4.32;;
58950;SDS011;44730;53.158;6.398;2023-06-04T02:42:06;5.15;;;4.55;;
58950;SDS011;44730;53.158;6.398;2023-06-04T02:44:33;7.40;;;3.70;;
58950;SDS011;44730;53.158;6.398;2023-06-04T02:47:00;6.82;;;4.00;;
58950;SDS011;44730;53.158;6.398;2023-06-04T02:49:26;6.00;;;4.40;;
58950;SDS011;44730;53.158;6.398;2023-06-04T02:51:52;8.18;;;3.58;;
58950;SDS011;44730;53.158;6.398;2023-06-04T02:54:18;7.72;;;3.67;;
58950;SDS011;44730;53.158;6.398;2023-06-04T02:56:44;8.55;;;3.75;;
58950;SDS011;44730;53.158;6.398;2023-06-04T02:59:10;7.70;;;3.50;;
58950;SDS011;44730;53.158;6.398;2023-06-04T03:01:39;6.90;;;3.20;;
58950;SDS011;44730;53.158;6.398;2023-06-04T03:04:05;7.18;;;3.92;;
58950;SDS011;44730;53.158;6.398;2023-06-04T03:06:35;6.55;;;3.53;;
58950;SDS011;44730;53.158;6.398;2023-06-04T03:09:05;5.70;;;3.53;;
58950;SDS011;44730;53.158;6.398;2023-06-04T03:11:32;8.00;;;3.55;;
58950;SDS011;44730;53.158;6.398;2023-06-04T03:13:58;5.43;;;3.50;;
58950;SDS011;44730;53.158;6.398;2023-06-04T03:16:25;5.53;;;3.45;;
58950;SDS011;44730;53.158;6.398;2023-06-04T03:18:51;5.90;;;3.47;;
58950;SDS011;44730;53.158;6.398;2023-06-04T03:21:17;4.90;;;3.17;;
58950;SDS011;44730;53.158;6.398;2023-06-04T03:23:43;4.45;;;2.83;;
58950;SDS011;44730;53.158;6.398;2023-06-04T03:26:10;5.45;;;3.00;;
58950;SDS011;44730;53.158;6.398;2023-06-04T03:28:38;5.10;;;3.03;;
58950;SDS011;44730;53.158;6.398;2023-06-04T03:31:04;6.53;;;3.33;;
58950;SDS011;44730;53.158;6.398;2023-06-04T03:33:32;8.60;;;3.45;;
58950;SDS011;44730;53.158;6.398;2023-06-04T03:35:58;5.97;;;3.03;;
58950;SDS011;44730;53.158;6.398;2023-06-04T03:38:25;6.63;;;3.60;;
58950;SDS011;44730;53.158;6.398;2023-06-04T03:40:53;5.85;;;3.30;;
58950;SDS011;44730;53.158;6.398;2023-06-04T03:43:20;4.88;;;3.60;;
58950;SDS011;44730;53.158;6.398;2023-06-04T03:45:52;4.68;;;3.28;;
58950;SDS011;44730;53.158;6.398;2023-06-04T03:48:18;6.22;;;4.10;;
58950;SDS011;44730;53.158;6.398;2023-06-04T03:50:45;8.57;;;5.10;;
58950;SDS011;44730;53.158;6.398;2023-06-04T03:53:11;5.85;;;3.75;;
58950;SDS011;44730;53.158;6.398;2023-06-04T03:55:38;5.45;;;3.53;;
58950;SDS011;44730;53.158;6.398;2023-06-04T03:58:04;7.03;;;4.05;;
58950;SDS011;44730;53.158;6.398;2023-06-04T04:00:32;5.53;;;4.32;;
58950;SDS011;44730;53.158;6.398;2023-06-04T04:02:58;8.70;;;3.78;;
58950;SDS011;44730;53.158;6.398;2023-06-04T04:05:25;7.28;;;4.80;;
58950;SDS011;44730;53.158;6.398;2023-06-04T04:07:51;6.22;;;4.80;;
58950;SDS011;44730;53.158;6.398;2023-06-04T04:10:17;6.05;;;3.90;;
58950;SDS011;44730;53.158;6.398;2023-06-04T04:12:43;6.97;;;4.13;;
58950;SDS011;44730;53.158;6.398;2023-06-04T04:15:10;7.28;;;4.10;;
58950;SDS011;44730;53.158;6.398;2023-06-04T04:17:36;5.00;;;3.47;;
58950;SDS011;44730;53.158;6.398;2023-06-04T04:20:03;6.28;;;3.92;;
58950;SDS011;44730;53.158;6.398;2023-06-04T04:22:30;6.78;;;4.20;;
58950;SDS011;44730;53.158;6.398;2023-06-04T04:24:58;7.47;;;3.78;;
58950;SDS011;44730;53.158;6.398;2023-06-04T04:27:25;6.85;;;3.97;;
58950;SDS011;44730;53.158;6.398;2023-06-04T04:29:51;7.75;;;4.30;;
58950;SDS011;44730;53.158;6.398;2023-06-04T04:32:20;7.45;;;4.28;;
58950;SDS011;44730;53.158;6.398;2023-06-04T04:34:51;5.95;;;4.40;;
58950;SDS011;44730;53.158;6.398;2023-06-04T04:37:17;6.43;;;4.55;;
58950;SDS011;44730;53.158;6.398;2023-06-04T04:39:46;7.43;;;4.32;;
58950;SDS011;44730;53.158;6.398;2023-06-04T04:42:12;8.30;;;4.78;;
58950;SDS011;44730;53.158;6.398;2023-06-04T04:44:38;7.82;;;4.53;;
58950;SDS011;44730;53.158;6.398;2023-06-04T04:47:05;8.18;;;4.60;;
58950;SDS011;44730;53.158;6.398;2023-06-04T04:49:31;7.72;;;4.57;;
58950;SDS011;44730;53.158;6.398;2023-06-04T04:51:57;6.57;;;4.65;;
58950;SDS011;44730;53.158;6.398;2023-06-04T04:54:23;9.15;;;5.30;;
58950;SDS011;44730;53.158;6.398;2023-06-04T04:56:49;8.32;;;5.47;;
58950;SDS011;44730;53.158;6.398;2023-06-04T04:59:16;9.35;;;5.72;;
58950;SDS011;44730;53.158;6.398;2023-06-04T05:01:42;8.07;;;5.20;;
58950;SDS011;44730;53.158;6.398;2023-06-04T05:04:08;8.23;;;5.18;;
58950;SDS011;44730;53.158;6.398;2023-06-04T05:06:34;9.32;;;5.40;;
58950;SDS011;44730;53.158;6.398;2023-06-04T05:09:01;10.13;;;5.28;;
58950;SDS011;44730;53.158;6.398;2023-06-04T05:11:33;10.32;;;5.38;;
58950;SDS011;44730;53.158;6.398;2023-06-04T05:13:59;7.65;;;5.30;;
58950;SDS011;44730;53.158;6.398;2023-06-04T05:16:27;7.95;;;5.05;;
58950;SDS011;44730;53.158;6.398;2023-06-04T05:18:54;6.30;;;4.72;;
58950;SDS011;44730;53.158;6.398;2023-06-04T05:21:22;8.90;;;5.05;;
58950;SDS011;44730;53.158;6.398;2023-06-04T05:23:48;7.38;;;4.80;;
58950;SDS011;44730;53.158;6.398;2023-06-04T05:26:14;6.63;;;4.47;;
58950;SDS011;44730;53.158;6.398;2023-06-04T05:28:41;9.13;;;5.18;;
58950;SDS011;44730;53.158;6.398;2023-06-04T05:31:09;8.40;;;4.88;;
58950;SDS011;44730;53.158;6.398;2023-06-04T05:33:38;6.00;;;4.57;;
58950;SDS011;44730;53.158;6.398;2023-06-04T05:36:04;6.70;;;4.85;;
58950;SDS011;44730;53.158;6.398;2023-06-04T05:38:30;8.77;;;5.22;;
58950;SDS011;44730;53.158;6.398;2023-06-04T05:40:56;5.88;;;4.55;;
58950;SDS011;44730;53.158;6.398;2023-06-04T05:43:23;6.32;;;4.78;;
58950;SDS011;44730;53.158;6.398;2023-06-04T05:45:49;6.65;;;4.85;;
58950;SDS011;44730;53.158;6.398;2023-06-04T05:48:16;7.70;;;5.30;;
58950;SDS011;44730;53.158;6.398;2023-06-04T05:50:43;5.65;;;4.85;;
58950;SDS011;44730;53.158;6.398;2023-06-04T05:53:09;8.93;;;5.50;;
58950;SDS011;44730;53.158;6.398;2023-06-04T05:55:37;7.10;;;5.88;;
58950;SDS011;44730;53.158;6.398;2023-06-04T05:58:03;7.05;;;5.72;;
58950;SDS011;44730;53.158;6.398;2023-06-04T06:00:30;11.30;;;5.93;;
58950;SDS011;44730;53.158;6.398;2023-06-04T06:02:56;7.47;;;5.43;;
58950;SDS011;44730;53.158;6.398;2023-06-04T06:05:22;7.20;;;5.28;;
58950;SDS011;44730;53.158;6.398;2023-06-04T06:07:48;8.43;;;5.20;;
58950;SDS011;44730;53.158;6.398;2023-06-04T06:10:14;8.13;;;5.40;;
58950;SDS011;44730;53.158;6.398;2023-06-04T06:12:40;8.18;;;4.78;;
58950;SDS011;44730;53.158;6.398;2023-06-04T06:15:07;7.22;;;5.15;;
58950;SDS011;44730;53.158;6.398;2023-06-04T06:17:33;7.43;;;4.60;;
58950;SDS011;44730;53.158;6.398;2023-06-04T06:20:00;5.35;;;3.60;;
58950;SDS011;44730;53.158;6.398;2023-06-04T06:22:31;7.57;;;3.50;;
58950;SDS011;44730;53.158;6.398;2023-06-04T06:24:57;4.03;;;3.17;;
58950;SDS011;44730;53.158;6.398;2023-06-04T06:27:24;6.10;;;3.60;;
58950;SDS011;44730;53.158;6.398;2023-06-04T06:29:50;6.72;;;3.67;;
58950;SDS011;44730;53.158;6.398;2023-06-04T06:32:16;7.07;;;3.55;;
58950;SDS011;44730;53.158;6.398;2023-06-04T06:34:42;6.07;;;3.75;;
58950;SDS011;44730;53.158;6.398;2023-06-04T06:37:09;5.13;;;3.38;;
58950;SDS011;44730;53.158;6.398;2023-06-04T06:39:35;6.43;;;3.67;;
58950;SDS011;44730;53.158;6.398;2023-06-04T06:42:01;9.15;;;3.63;;
58950;SDS011;44730;53.158;6.398;2023-06-04T06:44:27;7.85;;;3.33;;
58950;SDS011;44730;53.158;6.398;2023-06-04T06:46:53;4.15;;;3.15;;
58950;SDS011;44730;53.158;6.398;2023-06-04T06:49:20;5.43;;;2.85;;
58950;SDS011;44730;53.158;6.398;2023-06-04T06:51:46;6.53;;;3.28;;
58950;SDS011;44730;53.158;6.398;2023-06-04T06:54:14;6.80;;;3.13;;
58950;SDS011;44730;53.158;6.398;2023-06-04T06:56:46;5.10;;;2.78;;
58950;SDS011;44730;53.158;6.398;2023-06-04T06:59:14;5.28;;;3.15;;
58950;SDS011;44730;53.158;6.398;2023-06-04T07:01:40;3.63;;;2.80;;
58950;SDS011;44730;53.158;6.398;2023-06-04T07:04:07;3.92;;;2.70;;
58950;SDS011;44730;53.158;6.398;2023-06-04T07:06:35;7.95;;;3.13;;
58950;SDS011;44730;53.158;6.398;2023-06-04T07:09:01;5.22;;;2.65;;
58950;SDS011;44730;53.158;6.398;2023-06-04T07:11:29;5.15;;;2.65;;
58950;SDS011;44730;53.158;6.398;2023-06-04T07:13:57;3.72;;;2.63;;
58950;SDS011;44730;53.158;6.398;2023-06-04T07:16:23;6.43;;;2.97;;
58950;SDS011;44730;53.158;6.398;2023-06-04T07:18:51;4.40;;;2.60;;
58950;SDS011;44730;53.158;6.398;2023-06-04T07:21:17;5.28;;;2.33;;
58950;SDS011;44730;53.158;6.398;2023-06-04T07:23:45;3.85;;;2.17;;
58950;SDS011;44730;53.158;6.398;2023-06-04T07:26:15;6.30;;;2.90;;
58950;SDS011;44730;53.158;6.398;2023-06-04T07:28:41;4.30;;;2.50;;
58950;SDS011;44730;53.158;6.398;2023-06-04T07:31:08;3.80;;;2.53;;
58950;SDS011;44730;53.158;6.398;2023-06-04T07:33:34;3.47;;;2.40;;
58950;SDS011;44730;53.158;6.398;2023-06-04T07:36:07;3.35;;;2.30;;
58950;SDS011;44730;53.158;6.398;2023-06-04T07:38:39;3.58;;;2.30;;
58950;SDS011;44730;53.158;6.398;2023-06-04T07:41:06;4.20;;;2.40;;
58950;SDS011;44730;53.158;6.398;2023-06-04T07:43:36;5.78;;;2.70;;
58950;SDS011;44730;53.158;6.398;2023-06-04T07:46:03;4.35;;;2.60;;
58950;SDS011;44730;53.158;6.398;2023-06-04T07:48:30;4.07;;;2.33;;
58950;SDS011;44730;53.158;6.398;2023-06-04T07:51:02;5.30;;;2.67;;
58950;SDS011;44730;53.158;6.398;2023-06-04T07:53:29;3.67;;;2.38;;
58950;SDS011;44730;53.158;6.398;2023-06-04T07:55:56;4.63;;;2.40;;
58950;SDS011;44730;53.158;6.398;2023-06-04T07:58:22;5.20;;;2.63;;
58950;SDS011;44730;53.158;6.398;2023-06-04T08:00:48;8.05;;;2.85;;
58950;SDS011;44730;53.158;6.398;2023-06-04T08:03:16;5.03;;;2.78;;
58950;SDS011;44730;53.158;6.398;2023-06-04T08:05:42;4.43;;;2.25;;
58950;SDS011;44730;53.158;6.398;2023-06-04T08:08:08;4.63;;;2.40;;
58950;SDS011;44730;53.158;6.398;2023-06-04T08:10:34;4.25;;;2.20;;
58950;SDS011;44730;53.158;6.398;2023-06-04T08:13:00;3.65;;;2.55;;
58950;SDS011;44730;53.158;6.398;2023-06-04T08:15:27;4.30;;;2.35;;
58950;SDS011;44730;53.158;6.398;2023-06-04T08:17:54;3.38;;;2.17;;
58950;SDS011;44730;53.158;6.398;2023-06-04T08:20:20;4.85;;;2.30;;
58950;SDS011;44730;53.158;6.398;2023-06-04T08:22:48;4.60;;;2.45;;
58950;SDS011;44730;53.158;6.398;2023-06-04T08:25:14;4.85;;;2.20;;
58950;SDS011;44730;53.158;6.398;2023-06-04T08:27:42;4.95;;;2.60;;
58950;SDS011;44730;53.158;6.398;2023-06-04T08:30:08;4.57;;;2.33;;
58950;SDS011;44730;53.158;6.398;2023-06-04T08:32:35;4.55;;;2.38;;
58950;SDS011;44730;53.158;6.398;2023-06-04T08:35:01;4.47;;;2.53;;
58950;SDS011;44730;53.158;6.398;2023-06-04T08:37:28;3.65;;;2.20;;
58950;SDS011;44730;53.158;6.398;2023-06-04T08:39:54;4.97;;;2.10;;
58950;SDS011;44730;53.158;6.398;2023-06-04T08:42:30;3.28;;;1.85;;
58950;SDS011;44730;53.158;6.398;2023-06-04T08:44:57;3.55;;;1.92;;
58950;SDS011;44730;53.158;6.398;2023-06-04T08:47:24;3.10;;;1.95;;
58950;SDS011;44730;53.158;6.398;2023-06-04T08:49:51;5.20;;;2.45;;
58950;SDS011;44730;53.158;6.398;2023-06-04T08:52:19;3.20;;;2.17;;
58950;SDS011;44730;53.158;6.398;2023-06-04T08:54:51;3.65;;;2.10;;
58950;SDS011;44730;53.158;6.398;2023-06-04T08:57:18;4.97;;;2.17;;
58950;SDS011;44730;53.158;6.398;2023-06-04T08:59:49;5.38;;;2.25;;
58950;SDS011;44730;53.158;6.398;2023-06-04T09:02:16;5.05;;;2.45;;
58950;SDS011;44730;53.158;6.398;2023-06-04T09:04:43;4.03;;;2.40;;
58950;SDS011;44730;53.158;6.398;2023-06-04T09:07:10;4.43;;;2.40;;
58950;SDS011;44730;53.158;6.398;2023-06-04T09:09:38;3.65;;;2.20;;
58950;SDS011;44730;53.158;6.398;2023-06-04T09:12:05;3.45;;;2.42;;
58950;SDS011;44730;53.158;6.398;2023-06-04T09:14:34;2.92;;;1.90;;
58950;SDS011;44730;53.158;6.398;2023-06-04T09:17:00;3.58;;;2.40;;
58950;SDS011;44730;53.158;6.398;2023-06-04T09:19:27;4.03;;;2.05;;
58950;SDS011;44730;53.158;6.398;2023-06-04T09:21:54;3.75;;;2.15;;
58950;SDS011;44730;53.158;6.398;2023-06-04T09:24:23;3.60;;;2.10;;
58950;SDS011;44730;53.158;6.398;2023-06-04T09:26:49;2.75;;;1.63;;
58950;SDS011;44730;53.158;6.398;2023-06-04T09:29:15;3.15;;;1.90;;
58950;SDS011;44730;53.158;6.398;2023-06-04T09:32:16;3.38;;;1.88;;
58950;SDS011;44730;53.158;6.398;2023-06-04T09:34:35;3.90;;;1.60;;
58950;SDS011;44730;53.158;6.398;2023-06-04T09:37:02;2.92;;;2.17;;
58950;SDS011;44730;53.158;6.398;2023-06-04T09:39:29;3.40;;;1.70;;
58950;SDS011;44730;53.158;6.398;2023-06-04T09:42:02;2.63;;;1.95;;
58950;SDS011;44730;53.158;6.398;2023-06-04T09:44:29;2.40;;;1.60;;
58950;SDS011;44730;53.158;6.398;2023-06-04T09:46:56;3.72;;;2.05;;
58950;SDS011;44730;53.158;6.398;2023-06-04T09:49:23;1.73;;;1.45;;
58950;SDS011;44730;53.158;6.398;2023-06-04T09:51:50;2.20;;;1.52;;
58950;SDS011;44730;53.158;6.398;2023-06-04T09:54:16;2.25;;;1.63;;
58950;SDS011;44730;53.158;6.398;2023-06-04T09:56:42;2.47;;;1.70;;
58950;SDS011;44730;53.158;6.398;2023-06-04T09:59:09;3.05;;;1.90;;
58950;SDS011;44730;53.158;6.398;2023-06-04T10:01:39;2.25;;;1.92;;
58950;SDS011;44730;53.158;6.398;2023-06-04T10:04:09;3.03;;;1.70;;
58950;SDS011;44730;53.158;6.398;2023-06-04T10:06:38;3.67;;;1.73;;
58950;SDS011;44730;53.158;6.398;2023-06-04T10:09:06;2.03;;;1.55;;
58950;SDS011;44730;53.158;6.398;2023-06-04T10:11:38;2.58;;;1.70;;
58950;SDS011;44730;53.158;6.398;2023-06-04T10:14:09;2.63;;;2.05;;
58950;SDS011;44730;53.158;6.398;2023-06-04T10:16:37;3.70;;;1.92;;
58950;SDS011;44730;53.158;6.398;2023-06-04T10:19:06;2.30;;;1.55;;
58950;SDS011;44730;53.158;6.398;2023-06-04T10:21:34;2.85;;;1.90;;
58950;SDS011;44730;53.158;6.398;2023-06-04T10:24:01;2.45;;;1.60;;
58950;SDS011;44730;53.158;6.398;2023-06-04T10:26:27;2.45;;;1.70;;
58950;SDS011;44730;53.158;6.398;2023-06-04T10:28:55;2.85;;;2.03;;
58950;SDS011;44730;53.158;6.398;2023-06-04T10:31:22;2.42;;;1.70;;
58950;SDS011;44730;53.158;6.398;2023-06-04T10:33:53;2.65;;;1.70;;
58950;SDS011;44730;53.158;6.398;2023-06-04T10:36:20;2.58;;;1.70;;
58950;SDS011;44730;53.158;6.398;2023-06-04T10:38:48;3.10;;;1.70;;
58950;SDS011;44730;53.158;6.398;2023-06-04T10:41:15;2.95;;;1.50;;
58950;SDS011;44730;53.158;6.398;2023-06-04T10:43:42;2.53;;;1.75;;
58950;SDS011;44730;53.158;6.398;2023-06-04T10:46:15;2.17;;;1.73;;
58950;SDS011;44730;53.158;6.398;2023-06-04T10:48:55;2.30;;;1.67;;
58950;SDS011;44730;53.158;6.398;2023-06-04T10:51:31;2.33;;;1.60;;
58950;SDS011;44730;53.158;6.398;2023-06-04T10:53:58;1.42;;;1.30;;
58950;SDS011;44730;53.158;6.398;2023-06-04T10:56:28;2.78;;;1.52;;
58950;SDS011;44730;53.158;6.398;2023-06-04T10:58:55;3.42;;;1.60;;
58950;SDS011;44730;53.158;6.398;2023-06-04T11:01:25;1.55;;;1.45;;
58950;SDS011;44730;53.158;6.398;2023-06-04T11:03:51;3.00;;;1.80;;
58950;SDS011;44730;53.158;6.398;2023-06-04T11:06:18;2.30;;;1.50;;
58950;SDS011;44730;53.158;6.398;2023-06-04T11:08:44;2.17;;;1.63;;
58950;SDS011;44730;53.158;6.398;2023-06-04T11:11:11;1.98;;;1.42;;
58950;SDS011;44730;53.158;6.398;2023-06-04T11:13:37;2.70;;;1.80;;
58950;SDS011;44730;53.158;6.398;2023-06-04T11:16:12;2.33;;;1.50;;
58950;SDS011;44730;53.158;6.398;2023-06-04T11:18:40;1.67;;;1.58;;
58950;SDS011;44730;53.158;6.398;2023-06-04T11:21:06;4.55;;;2.00;;
58950;SDS011;44730;53.158;6.398;2023-06-04T11:23:33;4.00;;;1.80;;
58950;SDS011;44730;53.158;6.398;2023-06-04T11:26:05;1.90;;;1.50;;
58950;SDS011;44730;53.158;6.398;2023-06-04T11:28:31;2.83;;;2.13;;
58950;SDS011;44730;53.158;6.398;2023-06-04T11:30:59;4.78;;;1.60;;
58950;SDS011;44730;53.158;6.398;2023-06-04T11:33:40;5.25;;;1.70;;
58950;SDS011;44730;53.158;6.398;2023-06-04T11:36:07;2.72;;;1.80;;
58950;SDS011;44730;53.158;6.398;2023-06-04T11:38:34;1.70;;;1.58;;
58950;SDS011;44730;53.158;6.398;2023-06-04T11:41:01;3.03;;;1.88;;
58950;SDS011;44730;53.158;6.398;2023-06-04T11:43:31;2.97;;;1.70;;
58950;SDS011;44730;53.158;6.398;2023-06-04T11:45:58;2.05;;;1.63;;
58950;SDS011;44730;53.158;6.398;2023-06-04T11:48:24;3.03;;;1.80;;
58950;SDS011;44730;53.158;6.398;2023-06-04T11:50:50;1.85;;;1.60;;
58950;SDS011;44730;53.158;6.398;2023-06-04T11:53:17;3.08;;;1.80;;
58950;SDS011;44730;53.158;6.398;2023-06-04T11:55:43;3.92;;;2.00;;
58950;SDS011;44730;53.158;6.398;2023-06-04T11:58:10;2.05;;;1.80;;
58950;SDS011;44730;53.158;6.398;2023-06-04T12:00:37;2.53;;;1.90;;
58950;SDS011;44730;53.158;6.398;2023-06-04T12:03:03;2.65;;;2.10;;
58950;SDS011;44730;53.158;6.398;2023-06-04T12:05:30;3.13;;;2.08;;
58950;SDS011;44730;53.158;6.398;2023-06-04T12:08:04;4.97;;;2.33;;
58950;SDS011;44730;53.158;6.398;2023-06-04T12:10:37;4.95;;;2.00;;
58950;SDS011;44730;53.158;6.398;2023-06-04T12:13:07;4.00;;;2.05;;
58950;SDS011;44730;53.158;6.398;2023-06-04T12:15:34;3.85;;;1.98;;
58950;SDS011;44730;53.158;6.398;2023-06-04T12:18:00;3.50;;;2.20;;
58950;SDS011;44730;53.158;6.398;2023-06-04T12:20:32;2.80;;;2.30;;
58950;SDS011;44730;53.158;6.398;2023-06-04T12:23:00;3.53;;;2.60;;
58950;SDS011;44730;53.158;6.398;2023-06-04T12:25:29;3.40;;;2.50;;
58950;SDS011;44730;53.158;6.398;2023-06-04T12:27:55;3.15;;;2.30;;
58950;SDS011;44730;53.158;6.398;2023-06-04T12:30:22;2.20;;;1.77;;
58950;SDS011;44730;53.158;6.398;2023-06-04T12:32:48;4.07;;;2.45;;
58950;SDS011;44730;53.158;6.398;2023-06-04T12:35:16;2.60;;;1.98;;
58950;SDS011;44730;53.158;6.398;2023-06-04T12:37:42;3.08;;;2.28;;
58950;SDS011;44730;53.158;6.398;2023-06-04T12:40:08;4.35;;;2.20;;
58950;SDS011;44730;53.158;6.398;2023-06-04T12:42:34;3.17;;;1.77;;
58950;SDS011;44730;53.158;6.398;2023-06-04T12:45:01;2.50;;;2.00;;
58950;SDS011;44730;53.158;6.398;2023-06-04T12:47:27;4.38;;;2.28;;
58950;SDS011;44730;53.158;6.398;2023-06-04T12:49:53;3.10;;;2.10;;
58950;SDS011;44730;53.158;6.398;2023-06-04T12:52:22;3.67;;;1.90;;
58950;SDS011;44730;53.158;6.398;2023-06-04T12:54:49;3.10;;;1.90;;
58950;SDS011;44730;53.158;6.398;2023-06-04T12:57:15;3.15;;;1.80;;
58950;SDS011;44730;53.158;6.398;2023-06-04T12:59:42;3.22;;;1.80;;
58950;SDS011;44730;53.158;6.398;2023-06-04T13:02:08;2.85;;;1.90;;
58950;SDS011;44730;53.158;6.398;2023-06-04T13:04:34;4.30;;;1.63;;
58950;SDS011;44730;53.158;6.398;2023-06-04T13:07:01;2.53;;;1.60;;
58950;SDS011;44730;53.158;6.398;2023-06-04T13:09:28;2.40;;;1.80;;
58950;SDS011;44730;53.158;6.398;2023-06-04T13:11:55;3.33;;;1.85;;
58950;SDS011;44730;53.158;6.398;2023-06-04T13:14:22;3.58;;;1.60;;
58950;SDS011;44730;53.158;6.398;2023-06-04T13:16:48;2.97;;;2.10;;
58950;SDS011;44730;53.158;6.398;2023-06-04T13:19:19;2.03;;;1.60;;
58950;SDS011;44730;53.158;6.398;2023-06-04T13:21:46;2.30;;;1.80;;
58950;SDS011;44730;53.158;6.398;2023-06-04T13:24:12;2.85;;;1.73;;
58950;SDS011;44730;53.158;6.398;2023-06-04T13:26:38;2.50;;;1.63;;
58950;SDS011;44730;53.158;6.398;2023-06-04T13:29:07;1.90;;;1.63;;
58950;SDS011;44730;53.158;6.398;2023-06-04T13:31:34;3.13;;;1.70;;
58950;SDS011;44730;53.158;6.398;2023-06-04T13:34:00;2.72;;;1.77;;
58950;SDS011;44730;53.158;6.398;2023-06-04T13:36:26;3.17;;;2.30;;
58950;SDS011;44730;53.158;6.398;2023-06-04T13:38:52;3.20;;;1.80;;
58950;SDS011;44730;53.158;6.398;2023-06-04T13:41:20;2.85;;;1.98;;
58950;SDS011;44730;53.158;6.398;2023-06-04T13:43:46;2.63;;;1.92;;
58950;SDS011;44730;53.158;6.398;2023-06-04T13:46:13;2.13;;;1.67;;
58950;SDS011;44730;53.158;6.398;2023-06-04T13:48:39;3.78;;;1.88;;
58950;SDS011;44730;53.158;6.398;2023-06-04T13:51:05;3.60;;;1.80;;
58950;SDS011;44730;53.158;6.398;2023-06-04T13:53:32;2.00;;;1.67;;
58950;SDS011;44730;53.158;6.398;2023-06-04T13:55:58;2.75;;;1.75;;
58950;SDS011;44730;53.158;6.398;2023-06-04T13:58:27;2.03;;;1.58;;
58950;SDS011;44730;53.158;6.398;2023-06-04T14:00:53;3.50;;;1.80;;
58950;SDS011;44730;53.158;6.398;2023-06-04T14:03:20;3.28;;;1.90;;
58950;SDS011;44730;53.158;6.398;2023-06-04T14:05:46;4.13;;;1.90;;
58950;SDS011;44730;53.158;6.398;2023-06-04T14:08:12;2.92;;;1.90;;
58950;SDS011;44730;53.158;6.398;2023-06-04T14:10:39;2.70;;;1.80;;
58950;SDS011;44730;53.158;6.398;2023-06-04T14:13:06;3.22;;;1.90;;
58950;SDS011;44730;53.158;6.398;2023-06-04T14:15:33;2.30;;;1.60;;
58950;SDS011;44730;53.158;6.398;2023-06-04T14:17:59;2.90;;;1.77;;
58950;SDS011;44730;53.158;6.398;2023-06-04T14:20:26;2.50;;;2.05;;
58950;SDS011;44730;53.158;6.398;2023-06-04T14:22:52;2.35;;;1.50;;
58950;SDS011;44730;53.158;6.398;2023-06-04T14:25:18;4.28;;;1.70;;
58950;SDS011;44730;53.158;6.398;2023-06-04T14:27:44;2.97;;;1.63;;
58950;SDS011;44730;53.158;6.398;2023-06-04T14:30:11;2.28;;;1.70;;
58950;SDS011;44730;53.158;6.398;2023-06-04T14:32:38;3.97;;;1.73;;
58950;SDS011;44730;53.158;6.398;2023-06-04T14:35:05;1.98;;;1.60;;
58950;SDS011;44730;53.158;6.398;2023-06-04T14:37:31;3.30;;;1.80;;
58950;SDS011;44730;53.158;6.398;2023-06-04T14:39:57;3.30;;;1.70;;
58950;SDS011;44730;53.158;6.398;2023-06-04T14:42:26;3.65;;;1.70;;
58950;SDS011;44730;53.158;6.398;2023-06-04T14:44:52;1.70;;;1.60;;
58950;SDS011;44730;53.158;6.398;2023-06-04T14:47:19;17.45;;;15.80;;
58950;SDS011;44730;53.158;6.398;2023-06-04T14:49:45;41.20;;;36.85;;